Time;durP1;ratioP1;P1;durP2;ratioP2;P2;SDS_P1;SDS_P2;PMS_P1;PMS_P2;Temp;Humidity;BMP_temperature;BMP_pressure;BME280_temperature;BME280_humidity;BME280_pressure;Samples;Min_cycle;Max_cycle;Signal;HPM_P1;HPM_P2
2022/11/28 00:01:49;;;;;;;2.20;2.00;;;;;;;3.84;88.95;95433.34;4361991;32;20281;-58
2022/11/28 00:04:16;;;;;;;2.67;2.53;;;;;;;3.70;89.14;95435.59;4349929;32;20422;-59
2022/11/28 00:06:45;;;;;;;1.87;1.43;;;;;;;3.86;88.93;95433.09;4364183;32;20303;-58
2022/11/28 00:09:12;;;;;;;4.50;3.30;;;;;;;3.75;88.96;95421.69;4368858;32;20284;-58
2022/11/28 00:11:40;;;;;;;3.03;2.93;;;;;;;3.83;89.23;95416.03;4361491;32;20372;-58
2022/11/28 00:14:06;;;;;;;2.47;2.33;;;;;;;4.01;88.48;95412.25;4359392;32;20283;-58
2022/11/28 00:16:33;;;;;;;2.03;1.83;;;;;;;3.82;89.02;95406.56;4357410;32;20298;-59
2022/11/28 00:19:01;;;;;;;1.93;1.83;;;;;;;3.97;88.49;95409.31;4375071;32;20235;-58
2022/11/28 00:21:27;;;;;;;1.60;1.60;;;;;;;3.82;88.77;95398.69;4346534;32;20311;-58
2022/11/28 00:23:52;;;;;;;2.77;2.57;;;;;;;3.82;89.13;95405.78;4342823;32;20276;-58
2022/11/28 00:26:34;;;;;;;1.47;1.43;;;;;;;3.74;89.00;95393.91;4352147;32;20499;-57
2022/11/28 00:29:00;;;;;;;2.07;1.97;;;;;;;3.92;88.37;95398.81;4359024;32;20180;-58
2022/11/28 00:31:34;;;;;;;3.40;3.03;;;;;;;3.93;88.28;95403.00;4365831;32;20347;-58
2022/11/28 00:34:02;;;;;;;2.03;2.00;;;;;;;3.83;88.43;95407.34;4323008;32;20185;-58
2022/11/28 00:36:29;;;;;;;1.90;1.80;;;;;;;3.98;88.09;95403.03;4378428;32;20336;-58
2022/11/28 00:38:59;;;;;;;2.93;2.73;;;;;;;3.90;88.08;95408.75;4371686;32;20280;-58
2022/11/28 00:41:27;;;;;;;1.57;1.50;;;;;;;3.87;88.32;95403.19;4369743;32;20424;-58
2022/11/28 00:43:53;;;;;;;2.53;1.97;;;;;;;3.91;88.23;95405.09;4344949;32;20328;-58
2022/11/28 00:46:20;;;;;;;4.20;3.73;;;;;;;3.93;87.87;95410.09;4335930;32;20367;-58
2022/11/28 00:48:45;;;;;;;1.63;1.63;;;;;;;3.92;88.06;95417.16;4363952;32;20426;-58
2022/11/28 00:51:18;;;;;;;2.20;2.10;;;;;;;4.00;87.97;95414.06;4367807;32;20273;-58
2022/11/28 00:53:46;;;;;;;1.63;1.63;;;;;;;3.92;88.01;95411.94;4365844;32;20215;-58
2022/11/28 00:56:25;;;;;;;1.37;1.37;;;;;;;3.94;88.28;95391.47;4363187;32;20284;-58
2022/11/28 01:02:14;;;;;;;1.70;1.70;;;;;;;3.73;88.86;95398.37;4369985;32;20381;-58
2022/11/28 01:04:40;;;;;;;2.10;2.00;;;;;;;3.71;88.81;95391.78;4363280;32;20334;-58
2022/11/28 01:07:08;;;;;;;2.27;2.07;;;;;;;3.99;88.05;95373.13;4351811;32;20289;-58
2022/11/28 01:09:35;;;;;;;2.33;2.23;;;;;;;3.79;88.08;95370.34;4386244;32;20289;-58
2022/11/28 01:12:02;;;;;;;1.77;1.67;;;;;;;3.80;88.25;95383.19;4359312;32;20308;-58
2022/11/28 01:14:30;;;;;;;2.60;2.50;;;;;;;3.84;88.38;95373.00;4327746;32;20286;-58
2022/11/28 01:16:55;;;;;;;2.60;2.40;;;;;;;3.88;87.89;95370.69;4342015;32;20289;-58
2022/11/28 01:19:23;;;;;;;1.50;1.50;;;;;;;3.79;88.15;95375.56;4361781;32;20374;-56
2022/11/28 01:21:49;;;;;;;1.67;1.57;;;;;;;3.85;87.75;95365.94;4369173;32;20276;-57
2022/11/28 01:24:15;;;;;;;1.60;1.60;;;;;;;4.00;87.43;95350.31;4366368;32;20284;-57
2022/11/28 01:26:43;;;;;;;1.87;1.77;;;;;;;3.98;87.60;95357.63;4381861;32;20307;-57
2022/11/28 01:29:09;;;;;;;1.83;1.60;;;;;;;3.99;87.34;95360.00;4366110;32;20293;-58
2022/11/28 01:31:36;;;;;;;2.30;2.20;;;;;;;3.94;87.49;95352.13;4366606;32;20284;-59
2022/11/28 01:34:01;;;;;;;2.73;2.63;;;;;;;3.76;88.11;95350.63;4366984;32;20284;-62
2022/11/28 01:36:48;;;;;;;1.50;1.50;;;;;;;3.70;88.22;95345.59;4376043;32;20302;-58
2022/11/28 01:39:14;;;;;;;1.87;1.80;;;;;;;3.65;89.05;95353.44;4374854;32;20207;-59
2022/11/28 01:41:40;;;;;;;2.70;1.83;;;;;;;3.71;88.38;95347.19;4386710;32;20319;-58
2022/11/28 01:44:17;;;;;;;1.87;1.60;;;;;;;4.00;87.51;95347.69;4360383;32;20313;-59
2022/11/28 01:46:43;;;;;;;2.77;2.50;;;;;;;3.89;87.89;95349.44;4358291;32;20239;-58
2022/11/28 01:49:34;;;;;;;1.87;1.83;;;;;;;3.87;87.60;95346.28;4380877;32;20362;-58
2022/11/28 01:52:08;;;;;;;3.03;2.83;;;;;;;3.92;87.60;95346.31;4383165;32;20291;-59
2022/11/28 01:54:36;;;;;;;1.50;1.50;;;;;;;3.82;88.10;95343.59;4369291;32;20299;-58
2022/11/28 01:57:10;;;;;;;2.50;2.33;;;;;;;3.90;87.68;95340.53;4341302;32;20328;-62
2022/11/28 01:59:55;;;;;;;1.63;1.63;;;;;;;3.87;87.71;95338.41;4375589;32;20284;-58
2022/11/28 02:02:34;;;;;;;2.07;1.97;;;;;;;3.80;87.81;95329.94;4381462;32;20279;-58
2022/11/28 02:05:01;;;;;;;2.50;2.40;;;;;;;3.95;87.56;95319.56;4380305;32;20347;-58
2022/11/28 02:07:30;;;;;;;1.77;1.67;;;;;;;3.86;87.90;95326.31;4363771;32;20345;-58
2022/11/28 02:10:08;;;;;;;1.67;1.67;;;;;;;3.73;87.64;95329.37;4361567;32;20319;-57
2022/11/28 02:13:00;;;;;;;2.20;2.10;;;;;;;3.84;88.00;95353.84;4368118;32;20281;-57
2022/11/28 02:15:45;;;;;;;3.20;2.83;;;;;;;3.76;87.89;95370.81;4381210;32;20302;-59
2022/11/28 02:18:37;;;;;;;2.17;2.07;;;;;;;3.66;88.67;95370.75;4350519;32;20324;-57
2022/11/28 02:21:17;;;;;;;2.50;2.40;;;;;;;3.76;88.66;95381.31;4378459;32;20281;-58
2022/11/28 02:24:24;;;;;;;1.30;1.30;;;;;;;3.42;89.92;95355.31;4350314;32;20281;-58
2022/11/28 02:27:22;;;;;;;3.40;3.20;;;;;;;3.33;90.47;95362.03;4366447;32;20319;-58
2022/11/28 02:30:23;;;;;;;1.17;1.17;;;;;;;3.59;89.41;95355.19;4348905;32;20293;-58
2022/11/28 02:33:26;;;;;;;2.77;2.00;;;;;;;3.66;88.78;95339.28;4387351;32;20288;-58
2022/11/28 02:35:54;;;;;;;2.67;2.57;;;;;;;3.85;88.14;95348.34;4368030;32;20314;-58
2022/11/28 02:38:39;;;;;;;2.20;2.10;;;;;;;3.72;87.98;95331.22;4350716;32;20336;-58
2022/11/28 02:41:33;;;;;;;2.63;2.53;;;;;;;3.79;87.96;95326.53;4370846;32;20279;-57
2022/11/28 02:44:24;;;;;;;1.57;1.57;;;;;;;3.98;87.57;95321.69;4330654;32;20333;-57
2022/11/28 02:47:01;;;;;;;2.50;2.40;;;;;;;3.95;87.25;95321.41;4355784;32;20300;-58
2022/11/28 02:49:35;;;;;;;2.00;2.00;;;;;;;4.01;87.73;95326.44;4365156;32;20289;-57
2022/11/28 02:52:19;;;;;;;2.57;2.37;;;;;;;4.07;87.18;95312.31;4368602;32;20315;-59
2022/11/28 02:54:48;;;;;;;2.83;2.63;;;;;;;4.05;87.34;95305.72;4345478;32;20300;-57
2022/11/28 02:57:17;;;;;;;3.00;2.77;;;;;;;4.06;87.01;95302.06;4360540;32;20311;-59
2022/11/28 02:59:50;;;;;;;2.33;2.23;;;;;;;4.00;87.15;95297.81;4357306;32;20285;-58
2022/11/28 03:02:27;;;;;;;2.87;2.67;;;;;;;4.06;87.30;95297.59;4362940;32;20310;-58
2022/11/28 03:05:28;;;;;;;3.20;3.00;;;;;;;4.11;87.20;95292.41;4361025;32;20383;-58
2022/11/28 03:08:04;;;;;;;2.27;2.17;;;;;;;4.05;87.49;95290.78;4354845;32;20380;-59
2022/11/28 03:10:42;;;;;;;1.27;1.27;;;;;;;4.11;86.78;95295.03;4374507;32;20293;-58
2022/11/28 03:13:19;;;;;;;1.73;1.70;;;;;;;3.99;86.92;95302.28;4373439;32;20357;-58
2022/11/28 03:16:00;;;;;;;1.73;1.60;;;;;;;4.05;87.13;95300.47;4362938;32;20310;-58
2022/11/28 03:18:39;;;;;;;2.43;2.23;;;;;;;4.11;86.76;95310.78;4377507;32;20277;-58
2022/11/28 03:21:44;;;;;;;3.20;3.10;;;;;;;4.04;86.85;95312.81;4373480;32;20284;-59
2022/11/28 03:24:19;;;;;;;2.33;2.23;;;;;;;3.68;87.88;95305.72;4353110;32;20300;-59
2022/11/28 03:27:06;;;;;;;3.23;3.00;;;;;;;3.73;88.23;95298.69;4370910;32;20291;-58
2022/11/28 03:29:54;;;;;;;2.60;2.50;;;;;;;3.86;87.75;95288.81;4364870;32;20307;-58
2022/11/28 03:32:29;;;;;;;2.80;2.70;;;;;;;3.91;87.70;95286.22;4363025;32;20341;-58
2022/11/28 03:35:10;;;;;;;3.07;2.77;;;;;;;4.00;87.22;95284.69;4357895;32;20275;-58
2022/11/28 03:37:44;;;;;;;3.30;3.00;;;;;;;3.96;87.59;95289.66;4373286;32;20307;-57
2022/11/28 03:40:15;;;;;;;2.67;2.47;;;;;;;3.83;87.96;95273.56;4333409;32;20305;-58
2022/11/28 03:43:04;;;;;;;3.17;2.83;;;;;;;3.69;88.78;95276.63;4353918;32;20298;-59
2022/11/28 03:45:55;;;;;;;3.30;3.00;;;;;;;3.82;87.89;95270.16;4356558;32;20273;-57
2022/11/28 03:48:33;;;;;;;2.50;2.40;;;;;;;3.84;88.02;95262.81;4346736;32;20280;-58
2022/11/28 03:51:18;;;;;;;2.87;2.67;;;;;;;3.85;88.40;95260.97;4362987;32;20323;-58
2022/11/28 03:54:03;;;;;;;2.77;2.27;;;;;;;3.94;87.77;95255.03;4363649;32;20285;-58
2022/11/28 03:56:39;;;;;;;2.33;2.13;;;;;;;3.58;88.89;95237.44;4372587;32;20350;-56
2022/11/28 03:59:34;;;;;;;2.43;2.33;;;;;;;3.60;89.13;95251.09;4370655;32;20317;-58
2022/11/28 04:02:12;;;;;;;2.13;2.07;;;;;;;3.40;89.91;95234.16;4376033;32;20284;-58
2022/11/28 04:05:02;;;;;;;3.03;2.83;;;;;;;3.37;89.88;95242.53;4359166;32;20296;-59
2022/11/28 04:07:56;;;;;;;1.83;1.83;;;;;;;3.41;89.62;95227.88;4341356;32;20272;-57
2022/11/28 04:10:42;;;;;;;5.07;2.80;;;;;;;3.42;90.17;95245.19;4341716;32;20320;-58
2022/11/28 04:13:32;;;;;;;1.50;1.50;;;;;;;3.43;89.70;95236.28;4372248;32;20322;-58
2022/11/28 04:16:20;;;;;;;2.27;2.13;;;;;;;3.51;89.99;95250.00;4358639;32;20295;-58
2022/11/28 04:18:57;;;;;;;2.53;2.33;;;;;;;3.34;90.35;95235.16;4382664;32;20291;-58
2022/11/28 04:21:34;;;;;;;3.50;3.27;;;;;;;3.59;89.52;95220.66;4367119;32;20276;-58
2022/11/28 04:24:05;;;;;;;2.20;2.00;;;;;;;3.67;88.96;95228.06;4342707;32;20280;-58
2022/11/28 04:26:38;;;;;;;2.57;2.47;;;;;;;3.83;88.21;95229.75;4360053;32;20359;-58
2022/11/28 04:29:09;;;;;;;2.93;2.83;;;;;;;3.70;88.64;95224.94;4344446;32;20343;-59
2022/11/28 04:31:38;;;;;;;1.83;1.80;;;;;;;3.70;88.80;95210.00;4353036;32;20284;-58
2022/11/28 04:34:07;;;;;;;1.87;1.87;;;;;;;3.64;88.91;95213.63;4356181;32;20306;-56
2022/11/28 04:36:39;;;;;;;2.90;2.70;;;;;;;3.65;89.07;95222.28;4380832;32;20372;-60
2022/11/28 04:39:16;;;;;;;2.00;1.90;;;;;;;3.75;88.61;95217.09;4360406;32;20293;-59
2022/11/28 04:41:50;;;;;;;2.00;1.90;;;;;;;3.68;89.18;95201.59;4378213;32;20268;-58
2022/11/28 04:44:28;;;;;;;3.33;3.13;;;;;;;3.78;88.90;95224.47;4364930;32;20342;-57
2022/11/28 04:46:57;;;;;;;3.00;2.80;;;;;;;3.56;89.15;95219.31;4342096;32;20374;-58
2022/11/28 04:49:27;;;;;;;2.37;2.27;;;;;;;3.45;89.76;95226.34;4348776;32;20387;-58
2022/11/28 04:52:10;;;;;;;2.40;2.30;;;;;;;3.62;89.29;95217.53;4332554;32;20277;-59
2022/11/28 04:54:47;;;;;;;1.90;1.90;;;;;;;3.60;89.03;95220.41;4347007;32;20286;-63
2022/11/28 04:57:20;;;;;;;1.97;1.97;;;;;;;3.70;88.89;95235.44;4359612;32;20288;-58
2022/11/28 04:59:47;;;;;;;2.17;1.97;;;;;;;3.67;89.11;95235.94;4373931;32;20299;-58
2022/11/28 05:02:15;;;;;;;2.37;2.30;;;;;;;3.42;89.90;95233.91;4352733;32;20367;-58
2022/11/28 05:04:42;;;;;;;2.50;2.40;;;;;;;3.50;89.67;95227.44;4372697;32;20327;-58
2022/11/28 05:07:09;;;;;;;1.43;1.43;;;;;;;3.32;90.65;95210.25;4363877;32;20284;-58
2022/11/28 05:09:35;;;;;;;2.67;2.57;;;;;;;3.60;90.02;95206.50;4345190;32;20292;-58
2022/11/28 05:12:02;;;;;;;1.73;1.67;;;;;;;3.61;89.54;95185.28;4363196;32;20288;-58
2022/11/28 05:14:28;;;;;;;2.03;2.03;;;;;;;3.53;89.23;95167.41;4355768;32;20317;-58
2022/11/28 05:16:53;;;;;;;1.70;1.60;;;;;;;3.36;90.36;95154.44;4338712;32;20304;-58
2022/11/28 05:19:19;;;;;;;1.97;1.87;;;;;;;3.49;90.29;95187.31;4373337;32;20185;-58
2022/11/28 05:21:45;;;;;;;1.03;1.03;;;;;;;3.60;89.08;95245.84;4334105;32;20197;-59
2022/11/28 05:24:13;;;;;;;3.40;3.20;;;;;;;3.37;90.35;95253.00;4349948;32;20196;-59
2022/11/28 05:26:39;;;;;;;2.30;2.13;;;;;;;3.17;90.96;95252.81;4360431;32;20317;-57
2022/11/28 05:29:06;;;;;;;2.47;2.27;;;;;;;3.38;90.77;95272.94;4375396;32;20288;-58
2022/11/28 05:31:32;;;;;;;2.80;2.70;;;;;;;3.27;91.24;95258.19;4355185;32;20288;-58
2022/11/28 05:34:00;;;;;;;2.27;2.17;;;;;;;3.18;91.87;95266.72;4343466;32;20382;-58
2022/11/28 05:36:27;;;;;;;2.53;2.43;;;;;;;3.27;91.80;95268.66;4369936;32;20273;-58
2022/11/28 05:38:53;;;;;;;3.23;2.93;;;;;;;3.36;91.41;95261.91;4358236;32;20288;-59
2022/11/28 05:41:24;;;;;;;2.37;2.27;;;;;;;3.48;90.98;95255.72;4348255;32;20388;-58
2022/11/28 05:43:50;;;;;;;2.77;2.67;;;;;;;3.55;91.00;95262.31;4364248;32;20349;-58
2022/11/28 05:46:18;;;;;;;2.40;2.30;;;;;;;3.57;90.64;95265.50;4379113;32;20284;-59
2022/11/28 05:48:48;;;;;;;2.07;1.97;;;;;;;3.44;90.74;95258.84;4350037;32;20351;-57
2022/11/28 05:51:13;;;;;;;2.23;2.13;;;;;;;3.55;90.83;95264.16;4357211;32;20289;-57
2022/11/28 05:53:42;;;;;;;2.33;2.20;;;;;;;3.47;90.85;95251.53;4342422;32;20292;-58
2022/11/28 05:56:14;;;;;;;2.10;2.00;;;;;;;3.40;91.32;95246.47;4355876;32;20192;-58
2022/11/28 05:58:40;;;;;;;2.10;1.70;;;;;;;3.68;90.72;95258.50;4366262;32;20296;-57
2022/11/28 06:01:21;;;;;;;1.97;1.90;;;;;;;3.55;90.33;95243.19;4366783;32;20293;-59
2022/11/28 06:03:56;;;;;;;3.03;2.80;;;;;;;3.59;90.85;95244.25;4344208;32;20207;-58
2022/11/28 06:06:24;;;;;;;2.30;2.17;;;;;;;3.75;89.93;95231.00;4371698;32;20300;-59
2022/11/28 06:08:51;;;;;;;2.27;2.17;;;;;;;3.62;90.83;95226.19;4372318;32;20338;-58
2022/11/28 06:11:18;;;;;;;2.33;2.23;;;;;;;3.99;89.59;95228.00;4346844;32;20359;-57
2022/11/28 06:13:47;;;;;;;2.17;2.10;;;;;;;3.98;88.81;95224.59;4353435;32;20289;-58
2022/11/28 06:16:25;;;;;;;2.03;1.97;;;;;;;3.80;89.73;95219.75;4378069;32;20284;-58
2022/11/28 06:18:55;;;;;;;1.80;1.80;;;;;;;3.90;89.45;95219.03;4372018;32;20361;-57
2022/11/28 06:21:22;;;;;;;2.30;2.20;;;;;;;3.78;89.47;95212.13;4377985;32;20334;-57
2022/11/28 06:23:48;;;;;;;3.13;2.73;;;;;;;3.83;89.96;95208.75;4368073;32;20281;-58
2022/11/28 06:26:18;;;;;;;4.30;3.90;;;;;;;4.02;89.12;95220.41;4376115;32;20296;-58
2022/11/28 06:28:43;;;;;;;2.40;2.30;;;;;;;4.04;89.24;95205.22;4377172;32;20287;-58
2022/11/28 06:31:16;;;;;;;2.00;1.90;;;;;;;4.09;88.56;95221.00;4375356;32;20295;-59
2022/11/28 06:33:42;;;;;;;1.73;1.73;;;;;;;3.96;88.51;95224.03;4356028;32;20188;-58
2022/11/28 06:36:09;;;;;;;4.43;4.03;;;;;;;4.04;89.02;95210.47;4342559;32;20363;-59
2022/11/28 06:38:35;;;;;;;3.03;2.83;;;;;;;3.87;90.13;95216.91;4340025;32;20365;-58
2022/11/28 06:41:05;;;;;;;1.73;1.73;;;;;;;3.89;89.75;95212.22;4358705;32;20316;-58
2022/11/28 06:43:31;;;;;;;2.47;2.37;;;;;;;4.00;89.69;95209.38;4293390;32;20201;-58
2022/11/28 06:45:58;;;;;;;1.73;1.73;;;;;;;4.27;88.28;95213.72;4341625;32;20308;-58
2022/11/28 06:48:26;;;;;;;2.70;2.60;;;;;;;4.02;89.12;95211.75;4355975;32;20199;-58
2022/11/28 06:50:51;;;;;;;1.40;1.40;;;;;;;3.85;89.73;95204.06;4314360;32;20331;-57
2022/11/28 06:53:17;;;;;;;2.10;2.00;;;;;;;3.67;90.67;95214.97;4355163;32;20284;-57
2022/11/28 06:55:43;;;;;;;2.07;1.83;;;;;;;3.47;91.68;95213.00;4361408;32;20188;-57
2022/11/28 06:58:09;;;;;;;2.13;2.03;;;;;;;3.67;90.86;95212.34;4352859;32;20193;-57
2022/11/28 07:00:35;;;;;;;2.40;2.30;;;;;;;3.59;91.24;95197.84;4354505;32;20280;-58
2022/11/28 07:03:01;;;;;;;2.80;2.60;;;;;;;3.74;91.13;95197.19;4366744;32;20271;-57
2022/11/28 07:05:27;;;;;;;4.03;3.63;;;;;;;3.96;90.47;95191.78;4318548;32;20330;-57
2022/11/28 07:07:55;;;;;;;2.47;2.37;;;;;;;3.76;90.68;95195.06;4361767;32;20184;-57
2022/11/28 07:10:22;;;;;;;3.87;3.47;;;;;;;3.40;91.67;95194.84;4383844;32;20357;-58
2022/11/28 07:12:57;;;;;;;3.13;3.03;;;;;;;3.43;92.19;95194.34;4362030;32;20339;-57
2022/11/28 07:15:23;;;;;;;2.67;2.57;;;;;;;3.62;91.37;95202.59;4339150;32;20351;-57
2022/11/28 07:17:49;;;;;;;6.63;2.77;;;;;;;3.80;90.95;95209.25;4348714;32;20293;-57
2022/11/28 07:20:14;;;;;;;2.70;2.57;;;;;;;3.84;90.52;95196.44;4366474;32;20299;-58
2022/11/28 07:22:41;;;;;;;21.00;3.57;;;;;;;3.96;89.89;95197.00;4368068;32;20247;-45
2022/11/28 07:25:11;;;;;;;1.20;1.20;;;;;;;5.53;100.00;95192.16;4368886;32;20199;-45
2022/11/28 07:27:37;;;;;;;3.47;3.27;;;;;;;8.52;100.00;95187.62;4365416;32;20285;-43
2022/11/28 07:30:03;;;;;;;2.87;2.67;;;;;;;9.17;96.86;95187.03;4352636;32;20302;-45
2022/11/28 07:32:30;;;;;;;2.23;2.17;;;;;;;9.68;84.04;95186.25;4381018;32;20226;-44
2022/11/28 07:35:00;;;;;;;2.67;2.47;;;;;;;10.38;75.45;95196.69;4385139;32;20313;-43
2022/11/28 07:37:25;;;;;;;2.03;1.93;;;;;;;11.02;76.78;95204.34;4378374;32;20288;-44
2022/11/28 07:39:51;;;;;;;2.00;1.90;;;;;;;11.21;68.50;95214.87;4371576;32;20192;-43
2022/11/28 07:42:16;;;;;;;2.60;2.40;;;;;;;11.34;66.62;95211.38;4356559;32;20289;-43
2022/11/28 07:44:46;;;;;;;3.30;3.10;;;;;;;11.57;66.01;95201.53;4360534;32;20247;-44
2022/11/28 07:47:11;;;;;;;2.67;2.47;;;;;;;11.78;64.13;95196.56;4359095;32;20220;-43
2022/11/28 07:49:36;;;;;;;2.03;1.93;;;;;;;11.57;62.22;95190.91;4359634;32;20241;-60
2022/11/28 07:52:02;;;;;;;3.00;2.47;;;;;;;10.88;58.81;95194.88;4362555;32;20188;-58
2022/11/28 07:54:28;;;;;;;2.97;2.77;;;;;;;9.91;61.38;95187.97;4366676;32;20283;-57
2022/11/28 07:56:53;;;;;;;2.47;2.37;;;;;;;8.95;64.46;95185.75;4357544;32;23667;-57
2022/11/28 07:59:19;;;;;;;1.83;1.73;;;;;;;7.81;68.98;95184.94;4338516;32;20196;-57
2022/11/28 08:01:45;;;;;;;2.90;2.70;;;;;;;6.63;74.16;95197.41;4331921;32;20264;-57
2022/11/28 08:04:10;;;;;;;1.87;1.77;;;;;;;6.28;76.67;95197.53;4367253;32;20248;-56
2022/11/28 08:06:40;;;;;;;2.07;1.97;;;;;;;5.91;78.44;95185.53;4341081;32;20193;-58
2022/11/28 08:09:07;;;;;;;1.67;1.63;;;;;;;5.88;79.85;95186.03;4347581;32;20222;-57
2022/11/28 08:11:34;;;;;;;1.43;1.43;;;;;;;5.47;81.33;95183.47;4342676;32;20383;-57
2022/11/28 08:14:00;;;;;;;2.50;2.37;;;;;;;5.70;81.13;95168.19;4371178;32;20276;-58
2022/11/28 08:16:30;;;;;;;1.80;1.70;;;;;;;5.89;80.38;95168.44;4366647;32;20450;-57
2022/11/28 08:19:01;;;;;;;2.63;2.43;;;;;;;5.91;80.37;95169.75;4367322;32;20230;-58
2022/11/28 08:21:29;;;;;;;1.97;1.87;;;;;;;5.57;82.00;95171.38;4346797;32;20295;-57
2022/11/28 08:23:57;;;;;;;5.03;2.23;;;;;;;5.94;80.62;95179.75;4365321;32;22084;-58
2022/11/28 08:26:25;;;;;;;3.20;2.97;;;;;;;5.93;80.10;95191.31;4347423;32;20289;-58
2022/11/28 08:28:52;;;;;;;2.20;2.00;;;;;;;5.55;82.34;95192.66;4372605;32;20308;-58
2022/11/28 08:31:28;;;;;;;2.20;2.10;;;;;;;6.05;80.46;95198.91;4374193;32;20296;-57
2022/11/28 08:34:01;;;;;;;2.67;2.47;;;;;;;5.70;81.82;95205.00;4359993;32;20305;-59
2022/11/28 08:36:28;;;;;;;2.67;2.57;;;;;;;5.47;82.29;95201.88;4362640;32;20396;-57
2022/11/28 08:38:53;;;;;;;2.10;2.00;;;;;;;5.66;82.32;95201.31;4385154;32;20280;-58
2022/11/28 08:41:23;;;;;;;1.93;1.83;;;;;;;5.33;82.71;95187.69;4351679;32;20364;-57
2022/11/28 08:43:50;;;;;;;1.90;1.80;;;;;;;5.85;81.54;95187.34;4375095;32;20192;-57
2022/11/28 08:46:19;;;;;;;2.10;2.00;;;;;;;5.90;81.04;95186.59;4390587;32;20288;-57
2022/11/28 08:48:46;;;;;;;2.13;2.03;;;;;;;6.01;80.26;95180.25;4369663;32;20361;-57
2022/11/28 08:51:15;;;;;;;2.60;2.47;;;;;;;5.92;80.42;95181.84;4374084;32;20320;-57
2022/11/28 08:53:44;;;;;;;1.87;1.77;;;;;;;5.48;82.17;95177.16;4325379;32;20277;-58
2022/11/28 08:56:11;;;;;;;2.50;2.40;;;;;;;5.60;81.96;95178.72;4365456;32;20280;-58
2022/11/28 08:58:38;;;;;;;1.67;1.57;;;;;;;6.09;80.10;95171.78;4362634;32;20310;-59
2022/11/28 09:01:13;;;;;;;2.57;1.90;;;;;;;6.07;79.87;95192.34;4353719;32;20293;-57
2022/11/28 09:03:39;;;;;;;1.47;1.37;;;;;;;6.37;78.26;95199.34;4355171;32;20287;-57
2022/11/28 09:06:06;;;;;;;1.37;1.37;;;;;;;5.76;81.11;95196.06;4363089;32;20344;-63
2022/11/28 09:08:31;;;;;;;0.77;0.77;;;;;;;5.64;81.10;95192.91;4377618;32;20196;-57
2022/11/28 09:10:59;;;;;;;1.47;1.37;;;;;;;6.22;80.06;95203.91;4365788;32;20332;-56
2022/11/28 09:13:24;;;;;;;2.10;2.00;;;;;;;5.99;79.71;95198.16;4347427;32;20287;-57
2022/11/28 09:15:51;;;;;;;1.73;1.63;;;;;;;5.99;79.26;95198.16;4367710;32;20285;-58
2022/11/28 09:18:17;;;;;;;1.43;1.43;;;;;;;5.72;80.18;95187.91;4368052;32;20189;-57
2022/11/28 09:20:43;;;;;;;0.73;0.73;;;;;;;6.17;77.78;95189.69;4357355;32;20303;-58
2022/11/28 09:23:09;;;;;;;1.73;1.63;;;;;;;6.33;78.24;95198.31;4369603;32;20196;-57
2022/11/28 09:25:35;;;;;;;2.07;1.90;;;;;;;6.41;77.97;95196.97;4362046;32;20280;-63
2022/11/28 09:28:02;;;;;;;1.17;1.17;;;;;;;6.71;77.60;95209.22;4384166;32;20226;-57
2022/11/28 09:30:30;;;;;;;3.90;2.37;;;;;;;6.48;77.83;95200.88;4378041;32;20281;-55
2022/11/28 09:32:57;;;;;;;1.87;1.77;;;;;;;6.46;78.72;95196.94;4353229;32;20344;-56
2022/11/28 09:35:23;;;;;;;1.87;1.77;;;;;;;6.63;77.85;95204.53;4315967;32;20298;-57
2022/11/28 09:37:49;;;;;;;1.77;1.67;;;;;;;7.03;77.94;95206.94;4367396;32;20303;-56
2022/11/28 09:40:24;;;;;;;2.13;1.53;;;;;;;6.99;76.44;95199.84;4369634;32;20355;-58
2022/11/28 09:42:50;;;;;;;1.30;1.30;;;;;;;7.54;74.56;95191.50;4358702;32;20206;-57
2022/11/28 09:45:18;;;;;;;2.30;2.20;;;;;;;7.92;72.87;95192.47;4365352;32;20295;-57
2022/11/28 09:47:50;;;;;;;1.20;1.20;;;;;;;8.40;71.64;95183.81;4369381;32;20189;-56
2022/11/28 09:50:26;;;;;;;2.50;2.40;;;;;;;8.01;72.26;95194.53;4338500;32;20251;-57
2022/11/28 09:53:17;;;;;;;2.73;2.57;;;;;;;8.14;71.09;95188.56;4345985;32;20211;-58
2022/11/28 09:55:52;;;;;;;1.60;1.57;;;;;;;8.56;70.54;95185.22;4360196;32;20258;-57
2022/11/28 09:59:02;;;;;;;2.13;2.03;;;;;;;8.42;70.36;95189.63;4364355;32;20233;-57
2022/11/28 10:02:08;;;;;;;6.33;2.67;;;;;;;8.28;70.82;95194.78;4368437;32;20185;-58
2022/11/28 10:05:03;;;;;;;2.10;2.00;;;;;;;8.18;70.65;95192.22;4369460;32;20188;-56
2022/11/28 10:07:46;;;;;;;1.20;1.13;;;;;;;7.92;71.24;95187.19;4355886;32;20181;-58
2022/11/28 10:10:49;;;;;;;1.33;1.23;;;;;;;7.70;72.16;95186.09;4359160;32;20184;-57
2022/11/28 10:13:53;;;;;;;2.27;1.67;;;;;;;7.81;71.78;95190.22;4365389;32;20291;-58
2022/11/28 10:16:34;;;;;;;2.10;1.97;;;;;;;7.71;71.74;95183.19;4371222;32;20214;-58
2022/11/28 10:19:10;;;;;;;1.63;1.53;;;;;;;7.72;71.70;95181.31;4384065;32;20306;-58
2022/11/28 10:21:49;;;;;;;1.43;1.43;;;;;;;7.29;72.76;95186.44;4376065;32;20318;-58
2022/11/28 10:24:35;;;;;;;1.93;1.83;;;;;;;7.09;74.68;95178.66;4364815;32;20304;-58
2022/11/28 10:27:04;;;;;;;2.07;1.67;;;;;;;7.22;75.31;95186.75;4328389;32;20302;-58
2022/11/28 10:30:01;;;;;;;3.07;1.73;;;;;;;6.99;75.58;95184.03;4327815;32;20296;-58
2022/11/28 10:32:55;;;;;;;0.73;0.73;;;;;;;6.73;76.60;95183.37;4357318;32;20308;-58
2022/11/28 10:35:37;;;;;;;1.60;1.50;;;;;;;6.81;76.96;95183.59;4368947;32;20385;-57
2022/11/28 10:38:10;;;;;;;1.07;1.07;;;;;;;6.83;76.21;95185.97;4362628;32;20352;-57
2022/11/28 10:41:21;;;;;;;1.70;1.60;;;;;;;7.11;76.32;95176.53;4344303;32;20357;-57
2022/11/28 10:44:15;;;;;;;2.00;1.90;;;;;;;7.27;75.56;95178.03;4267856;32;20308;-57
2022/11/28 10:47:23;;;;;;;1.57;1.53;;;;;;;7.18;76.29;95177.81;4340149;32;20212;-57
2022/11/28 10:50:01;;;;;;;2.00;1.90;;;;;;;7.43;75.21;95168.94;4358781;32;20280;-57
2022/11/28 10:52:52;;;;;;;1.53;1.43;;;;;;;7.67;74.11;95170.84;4347978;32;20358;-56
2022/11/28 10:55:52;;;;;;;1.90;1.80;;;;;;;7.91;72.92;95171.63;4363096;32;20415;-57
2022/11/28 10:58:22;;;;;;;1.23;1.23;;;;;;;8.00;73.08;95172.59;4366041;32;20314;-57
2022/11/28 11:00:52;;;;;;;1.60;1.50;;;;;;;7.83;73.38;95174.91;4363536;32;20281;-58
2022/11/28 11:03:21;;;;;;;2.90;2.43;;;;;;;8.03;72.94;95171.25;4369933;32;20277;-57
2022/11/28 11:05:48;;;;;;;1.17;1.17;;;;;;;8.19;72.18;95167.38;4378064;32;20293;-57
2022/11/28 11:08:24;;;;;;;0.97;0.97;;;;;;;8.16;71.45;95170.59;4369369;32;20381;-57
2022/11/28 11:11:26;;;;;;;2.87;2.60;;;;;;;8.03;72.73;95172.06;4377379;32;20355;-58
2022/11/28 11:14:05;;;;;;;2.03;1.93;;;;;;;8.06;73.33;95163.56;4340636;32;20382;-58
2022/11/28 11:16:58;;;;;;;1.80;1.77;;;;;;;7.95;73.65;95170.00;4326318;32;20343;-57
2022/11/28 11:19:35;;;;;;;1.40;1.40;;;;;;;7.81;74.49;95166.47;4367115;32;20281;-56
2022/11/28 11:22:30;;;;;;;2.50;2.07;;;;;;;8.24;73.10;95167.34;4294684;32;20377;-54
2022/11/28 11:25:12;;;;;;;1.60;1.60;;;;;;;8.41;72.05;95167.69;4350355;32;20303;-55
2022/11/28 11:27:49;;;;;;;1.20;1.20;;;;;;;8.23;72.67;95174.47;4342201;32;20345;-57
2022/11/28 11:30:38;;;;;;;1.13;1.13;;;;;;;7.87;74.57;95178.56;4347138;32;20281;-55
2022/11/28 11:33:12;;;;;;;1.60;1.60;;;;;;;7.96;74.85;95171.59;4333153;32;20273;-56
2022/11/28 11:35:44;;;;;;;2.83;2.43;;;;;;;8.23;73.67;95165.75;4357081;32;20311;-57
2022/11/28 11:38:22;;;;;;;2.20;2.10;;;;;;;8.31;72.51;95169.66;4351829;32;20181;-57
2022/11/28 11:40:50;;;;;;;1.57;1.50;;;;;;;7.98;73.08;95161.53;4359330;32;20315;-55
2022/11/28 11:43:36;;;;;;;1.27;1.17;;;;;;;8.11;72.85;95163.50;4324491;32;20285;-56
2022/11/28 11:46:10;;;;;;;1.90;1.80;;;;;;;8.25;72.02;95160.97;4362891;32;20188;-56
2022/11/28 11:48:45;;;;;;;1.30;1.30;;;;;;;8.24;72.11;95156.75;4375872;32;20291;-58
2022/11/28 11:51:38;;;;;;;2.10;2.00;;;;;;;8.42;71.61;95152.59;4365803;32;20232;-55
2022/11/28 11:54:18;;;;;;;1.40;1.33;;;;;;;8.44;71.61;95151.25;4369082;32;20367;-57
2022/11/28 11:56:47;;;;;;;2.37;1.30;;;;;;;8.42;71.51;95155.25;4353259;32;20284;-57
2022/11/28 11:59:20;;;;;;;1.53;1.43;;;;;;;8.27;73.14;95157.00;4360185;32;20269;-57
2022/11/28 12:01:48;;;;;;;1.77;1.67;;;;;;;8.44;71.54;95145.97;4359382;32;20246;-57
2022/11/28 12:04:26;;;;;;;1.40;1.40;;;;;;;8.36;71.32;95148.44;4360821;32;20193;-56
2022/11/28 12:06:59;;;;;;;2.40;2.20;;;;;;;8.22;71.65;95141.19;4366599;32;20299;-57
2022/11/28 12:09:45;;;;;;;1.83;1.73;;;;;;;8.42;70.67;95139.41;4339805;32;20184;-56
2022/11/28 12:12:27;;;;;;;11.43;2.13;;;;;;;8.48;73.08;95138.28;4335610;32;20200;-57
2022/11/28 12:14:57;;;;;;;1.63;1.53;;;;;;;8.52;73.23;95144.56;4362790;32;20525;-56
2022/11/28 12:18:12;;;;;;;1.57;1.53;;;;;;;8.69;69.77;95136.94;4378105;32;20182;-57